Time;durP1;ratioP1;P1;durP2;ratioP2;P2;SDS_P1;SDS_P2;PMS_P1;PMS_P2;Temp;Humidity;BMP_temperature;BMP_pressure;BME280_temperature;BME280_humidity;BME280_pressure;Samples;Min_cycle;Max_cycle;Signal;HPM_P1;HPM_P2
2021/06/29 00:01:06;;;;;;;11.13;10.10;;;20.10;99.90;;;;;;5112990;28;20234;-81
2021/06/29 00:03:32;;;;;;;12.40;10.60;;;20.10;99.90;;;;;;5113433;28;20572;-81
2021/06/29 00:05:57;;;;;;;11.17;10.17;;;20.00;99.90;;;;;;5111194;28;20430;-81
2021/06/29 00:08:23;;;;;;;9.40;8.40;;;20.00;99.90;;;;;;5113408;28;20198;-81
2021/06/29 00:10:49;;;;;;;10.40;9.43;;;19.90;99.90;;;;;;5112353;28;20181;-81
2021/06/29 00:13:15;;;;;;;9.80;8.20;;;19.90;99.90;;;;;;5113035;28;20220;-81
2021/06/29 00:15:41;;;;;;;13.43;11.10;;;19.90;99.90;;;;;;5112902;28;20179;-81
2021/06/29 00:18:07;;;;;;;9.10;8.20;;;20.00;99.90;;;;;;5113452;28;20410;-81
2021/06/29 00:20:33;;;;;;;9.80;8.90;;;20.20;99.90;;;;;;5113269;28;20411;-81
2021/06/29 00:22:59;;;;;;;11.23;10.13;;;20.20;99.90;;;;;;5112090;28;20428;-81
2021/06/29 00:25:25;;;;;;;9.73;8.83;;;20.20;99.90;;;;;;5113157;28;20455;-81
2021/06/29 00:27:51;;;;;;;10.23;9.33;;;20.10;99.90;;;;;;5113071;28;20178;-81
2021/06/29 00:30:17;;;;;;;11.30;10.03;;;20.00;99.90;;;;;;5112142;28;20423;-81
2021/06/29 00:32:43;;;;;;;13.10;11.90;;;19.90;99.90;;;;;;5111571;28;20269;-81
2021/06/29 00:35:10;;;;;;;13.27;12.10;;;19.80;99.90;;;;;;5111569;28;20411;-81
2021/06/29 00:37:36;;;;;;;10.80;9.80;;;19.70;99.90;;;;;;5113046;28;20514;-81
2021/06/29 00:40:03;;;;;;;10.40;9.53;;;19.80;99.90;;;;;;5110747;28;20513;-81
2021/06/29 00:42:29;;;;;;;10.77;9.70;;;19.80;99.90;;;;;;5111615;28;20699;-80
2021/06/29 00:44:55;;;;;;;9.23;8.37;;;19.70;99.90;;;;;;5111527;28;20420;-81
2021/06/29 00:47:21;;;;;;;9.83;8.90;;;19.70;99.90;;;;;;5111437;28;20188;-85
2021/06/29 00:49:47;;;;;;;9.77;8.90;;;19.60;99.90;;;;;;5111706;28;20174;-81
2021/06/29 00:52:14;;;;;;;9.80;9.00;;;19.70;99.90;;;;;;5113130;28;20426;-81
2021/06/29 00:54:41;;;;;;;10.00;9.10;;;19.70;99.90;;;;;;5112785;28;20423;-81
2021/06/29 00:57:08;;;;;;;8.80;8.00;;;19.60;99.90;;;;;;5112736;28;20473;-81
2021/06/29 00:59:34;;;;;;;10.43;9.47;;;19.60;99.90;;;;;;5112865;28;20411;-81
2021/06/29 01:02:00;;;;;;;12.00;8.90;;;19.50;99.90;;;;;;5112530;28;20426;-80
2021/06/29 01:04:26;;;;;;;8.80;8.00;;;19.40;99.90;;;;;;5111872;28;20950;-81
2021/06/29 01:06:53;;;;;;;9.57;8.60;;;19.30;99.90;;;;;;5112781;28;20244;-81
2021/06/29 01:09:20;;;;;;;10.80;9.80;;;19.30;99.90;;;;;;5111734;28;20169;-82
2021/06/29 01:11:46;;;;;;;9.70;8.37;;;19.30;99.90;;;;;;5111704;28;20461;-82
2021/06/29 01:14:17;;;;;;;10.50;8.73;;;19.20;99.90;;;;;;5115276;28;20410;-81
2021/06/29 01:16:43;;;;;;;8.97;8.17;;;19.10;99.90;;;;;;5116029;28;20506;-81
2021/06/29 01:19:11;;;;;;;11.80;10.60;;;19.10;99.90;;;;;;5116287;28;20916;-81
2021/06/29 01:21:42;;;;;;;9.43;8.53;;;19.10;99.90;;;;;;5116392;28;20413;-80
2021/06/29 01:24:19;;;;;;;11.03;8.43;;;19.00;99.90;;;;;;5116413;28;21031;-84
2021/06/29 01:26:56;;;;;;;10.13;9.07;;;19.00;99.90;;;;;;5115050;28;20643;-80
2021/06/29 01:29:29;;;;;;;10.90;9.80;;;18.90;99.90;;;;;;5116388;28;20400;-85
2021/06/29 01:31:54;;;;;;;10.17;9.17;;;19.00;99.90;;;;;;5115833;28;20423;-80
2021/06/29 01:34:20;;;;;;;10.40;9.50;;;18.90;99.90;;;;;;5115100;28;20431;-81
2021/06/29 01:36:49;;;;;;;9.83;8.97;;;18.90;99.90;;;;;;5115857;28;20208;-81
2021/06/29 01:39:14;;;;;;;11.13;10.03;;;18.80;99.90;;;;;;5114491;27;20645;-81
2021/06/29 01:41:40;;;;;;;11.17;9.60;;;18.80;99.90;;;;;;5114652;28;20476;-80
2021/06/29 01:44:11;;;;;;;11.77;10.67;;;18.70;99.90;;;;;;5114798;28;20682;-80
2021/06/29 01:46:40;;;;;;;10.77;9.80;;;18.70;99.90;;;;;;5115554;28;20574;-81
2021/06/29 01:49:05;;;;;;;10.47;9.47;;;18.80;99.90;;;;;;5115892;28;20403;-80
2021/06/29 01:51:31;;;;;;;10.97;9.97;;;18.70;99.90;;;;;;5115854;28;20959;-81
2021/06/29 01:53:57;;;;;;;10.50;9.60;;;18.70;99.90;;;;;;5115828;28;20249;-81
2021/06/29 01:56:32;;;;;;;9.43;8.53;;;18.70;99.90;;;;;;5122934;27;20723;-81
2021/06/29 01:59:02;;;;;;;9.60;8.70;;;18.60;99.90;;;;;;5122354;27;20197;-82
2021/06/29 02:01:28;;;;;;;10.43;9.53;;;18.60;99.90;;;;;;5124696;27;20422;-81
2021/06/29 02:03:53;;;;;;;10.93;9.33;;;18.60;99.90;;;;;;5126478;27;20414;-81
2021/06/29 02:06:19;;;;;;;9.73;8.40;;;18.60;99.90;;;;;;5122020;27;20238;-85
2021/06/29 02:08:45;;;;;;;11.33;10.23;;;18.50;99.90;;;;;;5125294;27;20168;-82
2021/06/29 02:11:11;;;;;;;10.57;9.60;;;18.50;99.90;;;;;;5119630;27;20172;-81
2021/06/29 02:13:37;;;;;;;10.27;9.33;;;18.50;99.90;;;;;;5126114;27;20848;-81
2021/06/29 02:16:03;;;;;;;9.90;9.00;;;18.50;99.90;;;;;;5124582;27;20200;-81
2021/06/29 02:18:29;;;;;;;9.13;8.40;;;18.50;99.90;;;;;;5124675;27;20630;-82
2021/06/29 02:20:54;;;;;;;10.23;9.30;;;18.50;99.90;;;;;;5126216;27;20204;-84
2021/06/29 02:23:20;;;;;;;10.30;9.27;;;18.50;99.90;;;;;;5124479;27;20630;-81
2021/06/29 02:25:46;;;;;;;10.40;9.37;;;18.50;99.90;;;;;;5124800;27;20516;-81
2021/06/29 02:28:12;;;;;;;9.50;8.60;;;18.30;99.90;;;;;;5124592;27;20380;-85
2021/06/29 02:30:38;;;;;;;10.03;9.03;;;18.30;99.90;;;;;;5123363;27;20183;-82
2021/06/29 02:33:03;;;;;;;9.70;8.80;;;18.30;99.90;;;;;;5125266;27;20409;-85
2021/06/29 02:35:29;;;;;;;10.20;9.40;;;18.30;99.90;;;;;;5119216;27;20180;-81
2021/06/29 02:37:56;;;;;;;11.63;9.30;;;18.20;99.90;;;;;;5124501;27;20319;-81
2021/06/29 02:40:22;;;;;;;9.93;8.93;;;18.40;99.90;;;;;;5120132;27;20203;-80
2021/06/29 02:42:48;;;;;;;9.93;9.03;;;18.40;99.90;;;;;;5124997;27;20421;-81
2021/06/29 02:45:18;;;;;;;10.67;9.77;;;18.40;99.90;;;;;;5122238;27;20173;-81
2021/06/29 02:47:45;;;;;;;12.00;10.83;;;18.30;99.90;;;;;;5122121;27;20176;-79
2021/06/29 02:50:11;;;;;;;10.20;9.27;;;18.40;99.90;;;;;;5122991;27;20429;-79
2021/06/29 02:52:36;;;;;;;12.53;10.23;;;18.30;99.90;;;;;;5123455;27;20469;-84
2021/06/29 02:55:06;;;;;;;10.73;9.70;;;18.30;99.90;;;;;;5125107;27;20191;-85
2021/06/29 02:57:31;;;;;;;11.33;10.23;;;18.50;99.90;;;;;;5124750;27;20543;-79
2021/06/29 02:59:57;;;;;;;11.70;9.40;;;18.40;99.90;;;;;;5123200;27;20443;-79
2021/06/29 03:02:23;;;;;;;10.53;9.00;;;18.50;99.90;;;;;;5124697;27;20227;-79
2021/06/29 03:04:49;;;;;;;10.87;9.80;;;18.50;99.90;;;;;;5122057;27;20633;-80
2021/06/29 03:07:15;;;;;;;10.97;9.97;;;18.50;99.90;;;;;;5123593;27;20457;-85
2021/06/29 03:09:40;;;;;;;9.03;8.03;;;18.40;99.90;;;;;;5114322;27;20189;-85
2021/06/29 03:12:07;;;;;;;11.80;9.43;;;18.30;99.90;;;;;;5114053;28;20760;-79
2021/06/29 03:14:36;;;;;;;11.90;10.77;;;18.40;99.90;;;;;;5112970;28;20178;-84
2021/06/29 03:17:03;;;;;;;10.37;8.87;;;18.40;99.90;;;;;;5113763;28;20475;-82
2021/06/29 03:19:30;;;;;;;11.40;10.30;;;18.40;99.90;;;;;;5113913;28;20417;-80
2021/06/29 03:21:56;;;;;;;14.40;10.33;;;18.50;99.90;;;;;;5114107;28;20410;-85
2021/06/29 03:24:22;;;;;;;12.90;11.70;;;18.70;99.90;;;;;;5114082;28;20967;-80
2021/06/29 03:26:47;;;;;;;12.83;11.43;;;19.00;99.90;;;;;;5112500;28;20183;-81
2021/06/29 03:29:13;;;;;;;11.67;10.47;;;19.00;99.90;;;;;;5113784;28;20179;-80
2021/06/29 03:31:38;;;;;;;16.40;11.10;;;19.10;99.90;;;;;;5113323;28;20536;-79
2021/06/29 03:34:04;;;;;;;11.20;9.97;;;19.10;99.90;;;;;;5112169;28;20178;-79
2021/06/29 03:36:30;;;;;;;11.57;10.60;;;19.20;99.90;;;;;;5112851;28;20682;-80
2021/06/29 03:38:56;;;;;;;13.03;11.50;;;19.30;99.90;;;;;;5114111;28;20203;-80
2021/06/29 03:41:23;;;;;;;11.20;10.10;;;19.30;99.90;;;;;;5113916;28;20447;-80
2021/06/29 03:43:48;;;;;;;13.10;11.90;;;19.20;99.90;;;;;;5114040;28;20176;-79
2021/06/29 03:46:14;;;;;;;14.13;12.67;;;19.20;99.90;;;;;;5113551;28;20545;-79
2021/06/29 03:48:40;;;;;;;14.40;12.90;;;19.20;99.90;;;;;;5113874;28;20205;-79
2021/06/29 03:51:05;;;;;;;17.23;14.10;;;19.20;99.90;;;;;;5113824;28;20687;-79
2021/06/29 03:53:31;;;;;;;14.87;13.27;;;19.20;99.90;;;;;;5113673;28;20211;-79
2021/06/29 03:55:56;;;;;;;16.70;14.60;;;19.20;99.90;;;;;;5112492;28;20206;-79
2021/06/29 03:58:22;;;;;;;15.40;13.80;;;19.20;99.90;;;;;;5113794;28;20195;-79
2021/06/29 04:00:48;;;;;;;15.93;14.33;;;19.30;99.90;;;;;;5113157;28;20156;-79
2021/06/29 04:03:13;;;;;;;15.03;13.43;;;19.30;99.90;;;;;;5121581;27;20181;-81
2021/06/29 04:05:39;;;;;;;15.73;12.63;;;19.40;99.90;;;;;;5124969;27;20642;-80
2021/06/29 04:08:05;;;;;;;18.10;13.20;;;19.40;99.90;;;;;;5124480;27;20425;-79
2021/06/29 04:10:31;;;;;;;13.47;12.17;;;19.40;99.90;;;;;;5123094;27;20185;-82
2021/06/29 04:12:57;;;;;;;17.97;12.97;;;19.40;99.90;;;;;;5122850;27;20206;-79
2021/06/29 04:15:23;;;;;;;12.93;11.63;;;19.40;99.90;;;;;;5124439;28;20894;-81
2021/06/29 04:17:49;;;;;;;14.60;13.13;;;19.40;99.90;;;;;;5124330;27;20471;-83
2021/06/29 04:20:15;;;;;;;13.20;12.00;;;19.40;99.90;;;;;;5113199;28;20449;-80
2021/06/29 04:22:41;;;;;;;13.90;12.40;;;19.50;99.90;;;;;;5092006;28;20940;-80
2021/06/29 04:25:08;;;;;;;13.73;12.50;;;19.50;99.90;;;;;;5092145;28;20404;-80
2021/06/29 04:27:34;;;;;;;11.67;10.57;;;19.50;99.90;;;;;;5092096;28;20530;-80
2021/06/29 04:30:00;;;;;;;13.27;11.90;;;19.60;99.90;;;;;;5100489;28;20430;-80
2021/06/29 04:32:26;;;;;;;14.90;11.93;;;19.60;99.90;;;;;;5101039;28;20657;-80
2021/06/29 04:34:52;;;;;;;12.13;10.97;;;19.70;99.90;;;;;;5100549;28;20415;-80
2021/06/29 04:37:17;;;;;;;12.07;10.97;;;19.80;99.90;;;;;;5102274;28;20203;-81
2021/06/29 04:39:44;;;;;;;13.87;12.37;;;19.80;99.90;;;;;;5100633;28;20167;-80
2021/06/29 04:42:10;;;;;;;11.53;10.43;;;19.90;99.90;;;;;;5102062;28;20673;-80
2021/06/29 04:44:38;;;;;;;10.83;9.63;;;20.10;99.90;;;;;;5102242;28;20400;-80
2021/06/29 04:47:05;;;;;;;15.80;11.43;;;20.10;99.90;;;;;;5101151;28;20826;-80
2021/06/29 04:49:32;;;;;;;13.27;11.07;;;20.20;99.90;;;;;;5104418;28;20464;-80
2021/06/29 04:51:57;;;;;;;11.30;10.33;;;20.20;99.90;;;;;;5106560;28;20778;-80
2021/06/29 04:54:23;;;;;;;11.27;10.23;;;20.20;99.90;;;;;;5104601;28;20430;-80
2021/06/29 04:56:49;;;;;;;12.50;10.30;;;20.30;99.90;;;;;;5105851;28;20285;-80
2021/06/29 04:59:16;;;;;;;11.20;10.20;;;20.40;99.90;;;;;;5105903;28;20181;-80
2021/06/29 05:01:42;;;;;;;11.00;10.00;;;20.40;99.90;;;;;;5102643;28;20699;-80
2021/06/29 05:04:07;;;;;;;11.13;9.10;;;20.50;99.90;;;;;;5106143;28;20411;-80
2021/06/29 05:06:33;;;;;;;11.83;9.47;;;20.50;99.90;;;;;;5102335;28;20559;-80
2021/06/29 05:08:58;;;;;;;12.03;10.20;;;20.40;99.90;;;;;;5106464;28;20173;-80
2021/06/29 05:11:24;;;;;;;11.37;9.90;;;20.40;99.90;;;;;;5104889;28;20303;-80
2021/06/29 05:13:50;;;;;;;9.43;8.60;;;20.40;99.90;;;;;;5103159;28;20185;-80
2021/06/29 05:16:15;;;;;;;10.70;9.80;;;20.50;99.90;;;;;;5104621;28;20206;-80
2021/06/29 05:18:41;;;;;;;9.70;8.90;;;20.50;99.90;;;;;;5104800;28;20168;-80
2021/06/29 05:21:06;;;;;;;9.63;8.70;;;20.60;99.90;;;;;;5102887;28;20213;-80
2021/06/29 05:23:32;;;;;;;11.20;10.30;;;20.60;99.90;;;;;;5105305;28;20175;-80
2021/06/29 05:25:57;;;;;;;11.13;9.90;;;20.60;99.90;;;;;;5105448;28;20223;-80
2021/06/29 05:28:24;;;;;;;10.10;9.20;;;20.70;99.90;;;;;;5103822;28;20177;-80
2021/06/29 05:30:50;;;;;;;10.83;9.33;;;20.80;99.90;;;;;;5105190;28;20535;-80
2021/06/29 05:33:16;;;;;;;11.20;10.20;;;20.70;99.90;;;;;;5105008;28;20440;-80
2021/06/29 05:35:43;;;;;;;11.47;10.47;;;20.80;99.90;;;;;;5103746;28;20179;-80
2021/06/29 05:38:09;;;;;;;10.07;9.27;;;20.90;99.90;;;;;;5102731;28;20462;-80
2021/06/29 05:40:35;;;;;;;10.57;9.67;;;21.00;99.90;;;;;;5104884;28;20564;-80
2021/06/29 05:43:00;;;;;;;10.23;9.43;;;21.10;99.90;;;;;;5105556;28;20530;-81
2021/06/29 05:45:26;;;;;;;9.90;9.10;;;21.20;99.90;;;;;;5101885;28;20182;-80
2021/06/29 05:47:53;;;;;;;9.33;8.43;;;21.30;99.90;;;;;;5104980;28;20222;-80
2021/06/29 05:50:18;;;;;;;9.73;8.93;;;21.20;99.90;;;;;;5105022;28;20171;-80
2021/06/29 05:52:45;;;;;;;8.83;8.03;;;21.20;99.90;;;;;;5103325;28;20976;-80
2021/06/29 05:55:11;;;;;;;10.37;9.33;;;21.40;99.90;;;;;;5104939;28;20257;-80
2021/06/29 05:57:37;;;;;;;12.63;8.83;;;21.30;99.90;;;;;;5104190;28;20884;-80
2021/06/29 06:00:07;;;;;;;8.63;7.93;;;21.40;99.90;;;;;;5102870;27;20442;-82
2021/06/29 06:02:33;;;;;;;8.57;7.77;;;21.40;99.90;;;;;;5104259;28;20552;-81
2021/06/29 06:04:58;;;;;;;9.10;8.20;;;21.40;99.90;;;;;;5104806;28;20419;-81
2021/06/29 06:07:24;;;;;;;8.70;7.90;;;21.30;99.90;;;;;;5103082;28;20685;-80
2021/06/29 06:09:49;;;;;;;9.43;8.63;;;21.40;99.90;;;;;;5104854;28;20535;-80
2021/06/29 06:12:15;;;;;;;8.30;7.50;;;21.40;99.90;;;;;;5104053;28;20218;-80
2021/06/29 06:14:41;;;;;;;9.70;8.97;;;21.40;99.90;;;;;;5102853;28;20617;-81
2021/06/29 06:17:06;;;;;;;9.00;8.30;;;21.50;99.90;;;;;;5104941;28;20637;-80
2021/06/29 06:19:32;;;;;;;9.70;8.90;;;21.60;99.90;;;;;;5103557;28;20221;-82
2021/06/29 06:21:57;;;;;;;9.80;8.80;;;21.70;99.90;;;;;;5103560;28;20168;-80
2021/06/29 06:24:23;;;;;;;8.80;8.10;;;21.80;99.90;;;;;;5104882;28;20587;-80
2021/06/29 06:26:49;;;;;;;8.17;7.57;;;21.90;99.90;;;;;;5102736;28;20196;-81
2021/06/29 06:29:15;;;;;;;8.00;7.30;;;22.00;99.90;;;;;;5102536;28;20566;-81
2021/06/29 06:31:40;;;;;;;6.50;6.00;;;22.10;99.90;;;;;;5103654;28;20506;-80
2021/06/29 06:34:06;;;;;;;8.97;6.77;;;22.10;99.90;;;;;;5102612;28;20204;-80
2021/06/29 06:36:32;;;;;;;7.37;6.77;;;22.20;99.90;;;;;;5103966;28;20208;-80
2021/06/29 06:38:57;;;;;;;7.87;7.17;;;22.40;99.90;;;;;;5104027;28;20187;-80
2021/06/29 06:41:23;;;;;;;6.97;6.40;;;22.60;99.90;;;;;;5102435;28;20174;-80
2021/06/29 06:43:49;;;;;;;9.93;7.10;;;22.70;99.90;;;;;;5104412;28;20168;-80
2021/06/29 06:46:15;;;;;;;6.63;6.03;;;22.90;99.90;;;;;;5103050;28;20219;-80
2021/06/29 06:48:42;;;;;;;7.40;6.90;;;23.50;99.90;;;;;;5102529;28;20421;-80
2021/06/29 06:51:08;;;;;;;7.87;6.30;;;23.80;91.50;;;;;;5102572;28;20240;-80
2021/06/29 06:53:34;;;;;;;7.37;6.67;;;24.40;78.90;;;;;;5103410;28;20416;-80
2021/06/29 06:55:59;;;;;;;6.90;6.40;;;24.40;69.50;;;;;;5102520;28;20461;-81
2021/06/29 06:58:25;;;;;;;5.90;5.37;;;24.80;29.50;;;;;;5102057;28;20186;-82
2021/06/29 07:00:52;;;;;;;6.37;5.87;;;25.60;4.00;;;;;;5101983;28;20230;-80
2021/06/29 07:03:18;;;;;;;6.83;6.27;;;26.70;1.00;;;;;;5103531;28;20662;-80
2021/06/29 07:05:43;;;;;;;5.87;5.37;;;26.50;1.00;;;;;;5101969;28;20436;-81
2021/06/29 07:08:09;;;;;;;6.17;5.67;;;26.30;1.00;;;;;;5111083;28;20208;-81
2021/06/29 07:10:35;;;;;;;7.20;6.60;;;25.50;1.00;;;;;;5103765;28;20184;-80
2021/06/29 07:13:00;;;;;;;7.80;7.30;;;26.10;1.00;;;;;;5103705;28;20210;-81
2021/06/29 07:15:28;;;;;;;8.63;6.30;;;27.00;1.00;;;;;;5100905;28;20164;-81
2021/06/29 07:17:54;;;;;;;8.50;5.73;;;26.60;1.00;;;;;;5101998;28;20249;-83
2021/06/29 07:20:20;;;;;;;6.70;6.03;;;27.00;1.00;;;;;;5103896;28;20492;-84
2021/06/29 07:22:45;;;;;;;6.43;5.93;;;27.10;1.00;;;;;;5102138;28;20501;-81
2021/06/29 07:25:11;;;;;;;6.17;5.67;;;27.80;99.90;;;;;;5102641;28;20167;-81
2021/06/29 07:27:37;;;;;;;6.60;6.00;;;29.30;99.90;;;;;;5103733;28;20222;-81
2021/06/29 07:30:08;;;;;;;5.80;5.17;;;30.30;38.10;;;;;;5101251;28;20418;-81
2021/06/29 07:32:34;;;;;;;5.20;4.80;;;30.70;99.90;;;;;;5102148;28;20491;-81
2021/06/29 07:35:00;;;;;;;5.60;5.10;;;30.90;1.00;;;;;;5103614;28;20413;-81
2021/06/29 07:37:26;;;;;;;5.37;4.80;;;30.40;99.90;;;;;;5101651;28;20477;-81
2021/06/29 07:39:51;;;;;;;5.27;4.87;;;28.60;1.00;;;;;;5101219;28;20650;-81
2021/06/29 07:42:17;;;;;;;4.93;4.63;;;27.50;1.00;;;;;;5103306;28;20203;-81
2021/06/29 07:44:43;;;;;;;5.10;4.70;;;27.80;1.00;;;;;;5100884;28;20171;-81
2021/06/29 07:47:08;;;;;;;6.03;5.50;;;27.70;1.00;;;;;;5102803;28;20409;-81
2021/06/29 07:49:34;;;;;;;6.77;5.30;;;28.00;1.00;;;;;;5100836;28;20217;-81
2021/06/29 07:52:00;;;;;;;5.37;4.83;;;27.10;1.00;;;;;;5093510;28;20173;-81
2021/06/29 07:54:25;;;;;;;5.07;4.57;;;26.70;1.00;;;;;;5098893;28;20173;-81
2021/06/29 07:56:51;;;;;;;5.50;4.60;;;26.60;1.00;;;;;;5113762;28;20309;-81
2021/06/29 07:59:16;;;;;;;6.00;5.50;;;27.40;1.00;;;;;;5113590;28;20635;-81
2021/06/29 08:01:42;;;;;;;6.20;5.10;;;29.10;7.00;;;;;;5113533;28;20570;-81
2021/06/29 08:04:08;;;;;;;5.80;5.30;;;29.40;99.90;;;;;;5113740;28;20171;-81
2021/06/29 08:06:33;;;;;;;6.40;3.97;;;28.30;99.90;;;;;;5113737;28;20243;-81
2021/06/29 08:08:59;;;;;;;5.00;4.50;;;27.80;1.00;;;;;;5113668;28;20170;-81
2021/06/29 08:11:25;;;;;;;4.37;3.70;;;27.20;1.00;;;;;;5112175;28;20176;-81
2021/06/29 08:13:50;;;;;;;5.53;4.67;;;26.80;1.00;;;;;;5112274;28;20180;-81
2021/06/29 08:16:16;;;;;;;7.87;4.90;;;26.30;1.00;;;;;;5112967;28;20285;-81
2021/06/29 08:18:42;;;;;;;6.27;5.67;;;25.90;1.00;;;;;;5113583;28;20171;-81
2021/06/29 08:21:07;;;;;;;6.33;5.83;;;25.60;1.00;;;;;;5114603;28;20171;-81
2021/06/29 08:23:33;;;;;;;5.60;5.03;;;25.50;26.10;;;;;;5117883;28;20199;-80
2021/06/29 08:26:00;;;;;;;6.53;5.43;;;25.30;99.90;;;;;;5117734;28;20510;-80
2021/06/29 08:28:27;;;;;;;6.30;5.53;;;25.10;57.30;;;;;;5116481;28;20401;-80
2021/06/29 08:30:53;;;;;;;6.23;5.70;;;24.90;21.70;;;;;;5117335;28;20436;-80
2021/06/29 08:33:21;;;;;;;6.50;5.23;;;24.80;35.10;;;;;;5117653;28;20421;-80
2021/06/29 08:35:49;;;;;;;5.93;5.53;;;24.80;93.30;;;;;;5117526;28;20421;-80
2021/06/29 08:38:15;;;;;;;6.47;5.93;;;24.80;90.00;;;;;;5117607;28;20421;-80
2021/06/29 08:40:44;;;;;;;5.03;4.63;;;24.80;53.80;;;;;;5117572;28;20844;-80
2021/06/29 08:43:12;;;;;;;6.70;6.07;;;24.80;93.00;;;;;;5117409;27;20448;-81
2021/06/29 08:45:38;;;;;;;7.77;7.07;;;24.90;45.70;;;;;;5117128;28;20425;-80
2021/06/29 08:48:05;;;;;;;6.40;5.80;;;24.80;39.70;;;;;;5117379;28;20405;-80
2021/06/29 08:50:31;;;;;;;6.37;5.87;;;24.80;66.70;;;;;;5117388;28;20421;-81
2021/06/29 08:53:01;;;;;;;5.77;5.37;;;24.80;49.70;;;;;;5117250;28;20938;-80
2021/06/29 08:55:33;;;;;;;6.27;5.77;;;24.90;99.90;;;;;;5115778;28;20624;-81
2021/06/29 08:57:59;;;;;;;7.23;6.53;;;24.90;99.90;;;;;;5117139;28;20460;-81
2021/06/29 09:00:25;;;;;;;6.80;6.20;;;25.10;33.30;;;;;;5115488;28;20966;-80
2021/06/29 09:02:51;;;;;;;8.13;7.40;;;25.40;21.30;;;;;;5115829;28;20176;-80
2021/06/29 09:05:29;;;;;;;6.47;5.83;;;25.60;1.00;;;;;;5116980;28;21003;-80
2021/06/29 09:08:09;;;;;;;6.10;5.60;;;25.80;44.70;;;;;;5116907;28;20175;-81
2021/06/29 09:10:37;;;;;;;6.10;5.50;;;26.10;16.70;;;;;;5116936;28;20433;-80
2021/06/29 09:13:05;;;;;;;7.53;5.80;;;26.20;1.00;;;;;;5116661;28;20459;-81
2021/06/29 09:15:45;;;;;;;6.77;6.17;;;26.20;1.00;;;;;;5116535;28;20417;-80
2021/06/29 09:18:22;;;;;;;7.20;5.73;;;25.80;1.00;;;;;;5115652;28;20448;-81
2021/06/29 09:20:59;;;;;;;7.13;6.43;;;25.60;1.00;;;;;;5116875;27;20405;-81
2021/06/29 09:23:27;;;;;;;7.60;6.80;;;25.60;1.00;;;;;;5116627;28;20498;-81
2021/06/29 09:26:07;;;;;;;6.80;6.30;;;25.70;1.00;;;;;;5114806;28;20516;-80
2021/06/29 09:28:41;;;;;;;7.10;6.40;;;25.80;11.60;;;;;;5115326;28;20509;-81
2021/06/29 09:31:09;;;;;;;7.50;5.70;;;25.90;1.00;;;;;;5114713;28;20421;-81
2021/06/29 09:33:37;;;;;;;5.30;4.80;;;26.10;6.40;;;;;;5115615;28;20932;-81
2021/06/29 09:36:11;;;;;;;6.30;5.80;;;25.90;1.00;;;;;;5115107;28;20971;-81
2021/06/29 09:38:39;;;;;;;5.83;5.33;;;25.70;24.00;;;;;;5116433;28;20410;-81
2021/06/29 09:41:07;;;;;;;7.03;5.77;;;25.50;2.10;;;;;;5116391;28;20405;-81
2021/06/29 09:43:38;;;;;;;6.87;5.60;;;25.10;18.00;;;;;;5116397;28;20413;-81
2021/06/29 09:46:07;;;;;;;6.87;5.40;;;25.10;30.60;;;;;;5112586;28;20432;-81
2021/06/29 09:48:34;;;;;;;5.97;5.30;;;24.90;67.00;;;;;;5095629;28;20441;-81
2021/06/29 09:51:06;;;;;;;8.00;6.20;;;24.80;67.00;;;;;;5095715;28;20420;-81
2021/06/29 09:53:38;;;;;;;6.03;5.63;;;24.60;98.30;;;;;;5095741;28;20513;-80
2021/06/29 09:56:06;;;;;;;7.97;5.83;;;24.60;99.90;;;;;;5095629;28;20495;-80
2021/06/29 09:58:33;;;;;;;6.30;5.80;;;24.20;99.90;;;;;;5095616;28;20430;-80
2021/06/29 10:01:00;;;;;;;5.90;5.40;;;24.00;99.90;;;;;;5102090;28;20436;-80
2021/06/29 10:03:32;;;;;;;7.03;6.53;;;23.70;99.90;;;;;;5113340;28;20419;-81
2021/06/29 10:06:00;;;;;;;6.73;6.00;;;23.60;99.90;;;;;;5115788;28;20455;-81
2021/06/29 10:08:32;;;;;;;8.20;6.53;;;23.30;99.90;;;;;;5115838;28;20765;-80
2021/06/29 10:11:19;;;;;;;7.50;6.30;;;23.30;99.90;;;;;;5115808;28;20414;-80
2021/06/29 10:14:03;;;;;;;7.57;6.97;;;23.10;99.90;;;;;;5115440;28;20975;-80
2021/06/29 10:16:34;;;;;;;9.50;8.60;;;22.90;99.90;;;;;;5115681;28;20539;-80
2021/06/29 10:19:15;;;;;;;7.20;6.70;;;22.90;99.90;;;;;;5115580;28;20468;-80
2021/06/29 10:21:50;;;;;;;9.13;8.50;;;22.90;99.90;;;;;;5114805;28;20399;-80
2021/06/29 10:24:24;;;;;;;8.97;8.20;;;22.80;99.90;;;;;;5115464;28;20917;-80
2021/06/29 10:26:52;;;;;;;10.03;9.20;;;22.80;99.90;;;;;;5115454;28;20463;-80
2021/06/29 10:29:20;;;;;;;9.17;8.23;;;22.60;99.90;;;;;;5115149;28;20409;-82
2021/06/29 10:31:48;;;;;;;10.13;9.00;;;22.50;99.90;;;;;;5115337;28;20444;-80
2021/06/29 10:34:14;;;;;;;10.13;9.23;;;22.50;99.90;;;;;;5115237;28;20410;-79
2021/06/29 10:36:46;;;;;;;11.73;9.47;;;22.50;99.90;;;;;;5115054;28;20462;-80
2021/06/29 10:39:15;;;;;;;9.07;8.37;;;22.50;99.90;;;;;;5115225;28;20406;-80
2021/06/29 10:42:02;;;;;;;9.67;8.87;;;22.50;99.90;;;;;;5115210;28;20445;-80
2021/06/29 10:44:33;;;;;;;8.83;7.93;;;22.50;99.90;;;;;;5114655;28;20405;-79
2021/06/29 10:46:59;;;;;;;10.80;9.87;;;22.40;99.90;;;;;;5115070;28;20907;-79
2021/06/29 10:49:36;;;;;;;9.37;8.60;;;22.40;99.90;;;;;;5114891;28;20416;-80
2021/06/29 10:52:08;;;;;;;8.00;7.30;;;22.40;99.90;;;;;;5114906;28;20174;-80
2021/06/29 10:54:43;;;;;;;9.77;8.77;;;22.40;99.90;;;;;;5114904;28;20479;-80
2021/06/29 10:57:12;;;;;;;10.00;9.03;;;22.30;99.90;;;;;;5114693;28;20556;-80
2021/06/29 10:59:40;;;;;;;8.93;8.13;;;22.50;99.90;;;;;;5114411;28;20408;-80
2021/06/29 11:02:07;;;;;;;7.53;6.90;;;22.50;99.90;;;;;;5114584;28;20423;-80
2021/06/29 11:04:58;;;;;;;9.27;8.53;;;22.50;99.90;;;;;;5114637;28;20408;-80
2021/06/29 11:07:27;;;;;;;8.97;8.17;;;22.50;99.90;;;;;;5114630;28;20424;-79
2021/06/29 11:10:00;;;;;;;7.60;7.00;;;22.70;99.90;;;;;;5114663;28;20410;-80
2021/06/29 11:12:29;;;;;;;8.10;7.40;;;22.80;99.90;;;;;;5114175;28;20854;-79
2021/06/29 11:15:02;;;;;;;7.53;6.80;;;23.10;99.90;;;;;;5114173;28;20408;-80
2021/06/29 11:17:46;;;;;;;8.60;7.80;;;23.40;99.90;;;;;;5114473;28;20637;-82
2021/06/29 11:20:13;;;;;;;8.90;8.20;;;23.80;99.90;;;;;;5114351;28;20476;-80
2021/06/29 11:22:57;;;;;;;8.63;7.90;;;24.10;99.90;;;;;;5113063;28;20409;-80
2021/06/29 11:25:50;;;;;;;9.43;8.50;;;24.40;99.90;;;;;;5114298;28;20459;-80
2021/06/29 11:28:28;;;;;;;7.70;7.10;;;24.30;99.90;;;;;;5114323;28;20814;-80
2021/06/29 11:31:00;;;;;;;7.90;6.87;;;24.10;99.90;;;;;;5113876;28;20484;-80
2021/06/29 11:33:37;;;;;;;7.80;7.00;;;23.90;99.90;;;;;;5114263;28;20421;-80
2021/06/29 11:36:06;;;;;;;8.23;7.00;;;23.80;99.90;;;;;;5114131;28;20411;-79
2021/06/29 11:38:40;;;;;;;5.97;5.47;;;24.00;99.90;;;;;;5112831;28;20432;-80
2021/06/29 11:41:24;;;;;;;12.73;7.07;;;24.10;99.90;;;;;;5114082;28;20427;-80
2021/06/29 11:43:55;;;;;;;8.20;7.50;;;24.20;99.90;;;;;;5113654;28;20470;-79
2021/06/29 11:46:53;;;;;;;4.13;3.83;;;24.40;99.90;;;;;;5114119;28;20405;-79
2021/06/29 11:49:28;;;;;;;4.30;3.97;;;24.60;99.90;;;;;;5114012;28;20527;-80
2021/06/29 11:52:11;;;;;;;5.93;4.27;;;24.60;99.90;;;;;;5113842;28;20414;-80
2021/06/29 11:55:06;;;;;;;4.67;4.27;;;24.60;99.90;;;;;;5113848;28;20404;-80
2021/06/29 11:57:39;;;;;;;6.00;4.30;;;24.70;99.90;;;;;;5113287;28;20496;-80
2021/06/29 12:00:25;;;;;;;5.40;4.00;;;24.50;99.90;;;;;;5113444;28;20444;-81
2021/06/29 12:02:57;;;;;;;4.37;3.67;;;24.60;99.90;;;;;;5113703;28;20429;-80
2021/06/29 12:05:27;;;;;;;4.03;3.73;;;24.60;99.90;;;;;;5113772;28;20409;-80
2021/06/29 12:07:54;;;;;;;3.97;3.60;;;24.40;99.90;;;;;;5113618;28;20441;-80
2021/06/29 12:10:24;;;;;;;4.40;4.03;;;24.50;99.90;;;;;;5113637;28;20488;-80
2021/06/29 12:12:52;;;;;;;3.87;3.57;;;24.60;99.90;;;;;;5113272;28;20457;-80
2021/06/29 12:15:34;;;;;;;4.70;4.30;;;24.70;99.90;;;;;;5111989;28;20437;-80
2021/06/29 12:18:17;;;;;;;5.23;3.90;;;25.10;99.90;;;;;;5104585;28;20534;-80
2021/06/29 12:21:00;;;;;;;4.93;4.43;;;25.10;65.50;;;;;;5101847;28;20471;-80
2021/06/29 12:23:31;;;;;;;4.23;3.93;;;25.60;56.60;;;;;;5102036;28;20417;-80
2021/06/29 12:25:58;;;;;;;4.73;4.23;;;25.70;99.90;;;;;;5099239;28;20412;-82
2021/06/29 12:28:27;;;;;;;2.77;2.40;;;25.90;42.60;;;;;;5092664;28;20410;-81
2021/06/29 12:31:04;;;;;;;2.90;2.70;;;26.20;1.00;;;;;;5107223;28;20807;-82
2021/06/29 12:33:31;;;;;;;3.30;3.00;;;25.80;1.00;;;;;;5113215;28;20436;-83
2021/06/29 12:36:11;;;;;;;3.80;3.50;;;26.10;1.00;;;;;;5111688;28;20451;-81
2021/06/29 12:38:48;;;;;;;3.50;3.20;;;25.80;1.00;;;;;;5113190;28;20414;-81
2021/06/29 12:41:22;;;;;;;4.73;3.70;;;25.30;1.00;;;;;;5111842;28;20469;-81
2021/06/29 12:43:57;;;;;;;3.67;2.77;;;24.90;34.30;;;;;;5111339;28;20457;-82
2021/06/29 12:46:27;;;;;;;4.43;4.03;;;24.60;39.60;;;;;;5108917;28;20409;-80
2021/06/29 12:49:08;;;;;;;4.33;4.00;;;24.50;99.90;;;;;;5112913;28;20402;-82